createdAt,value
2023-04-26T00:00:13.986Z,8.33
2023-04-26T00:02:41.959Z,9.00
2023-04-26T00:05:10.937Z,10.00
2023-04-26T00:07:39.071Z,9.00
2023-04-26T00:10:10.714Z,8.67
2023-04-26T00:12:38.653Z,10.00
2023-04-26T00:15:08.851Z,9.67
2023-04-26T00:17:37.874Z,10.33
2023-04-26T00:20:10.026Z,10.00
2023-04-26T00:22:40.028Z,9.00
2023-04-26T00:25:12.793Z,9.67
2023-04-26T00:27:41.502Z,9.00
2023-04-26T00:30:11.429Z,10.00
2023-04-26T00:32:40.183Z,11.00
2023-04-26T00:35:09.287Z,10.00
2023-04-26T00:37:38.083Z,11.00
2023-04-26T00:40:06.964Z,10.00
2023-04-26T00:42:34.769Z,11.00
2023-04-26T00:45:04.241Z,11.00
2023-04-26T00:47:33.186Z,10.00
2023-04-26T00:50:02.408Z,11.00
2023-04-26T00:52:32.146Z,11.00
2023-04-26T00:55:00.861Z,11.00
2023-04-26T00:57:29.585Z,11.00
2023-04-26T00:59:57.489Z,11.00
2023-04-26T01:02:25.845Z,12.00
2023-04-26T01:04:53.856Z,10.00
2023-04-26T01:07:21.880Z,9.00
2023-04-26T01:09:51.103Z,12.00
2023-04-26T01:12:20.515Z,11.33
2023-04-26T01:14:48.497Z,11.50
2023-04-26T01:17:17.333Z,12.00
2023-04-26T01:19:50.702Z,13.33
2023-04-26T01:22:19.813Z,11.33
2023-04-26T01:24:52.237Z,12.33
2023-04-26T01:27:20.163Z,13.50
2023-04-26T01:29:48.884Z,11.00
2023-04-26T01:32:16.809Z,11.00
2023-04-26T01:34:44.643Z,13.00
2023-04-26T01:37:13.509Z,11.00
2023-04-26T01:39:42.209Z,12.33
2023-04-26T01:42:11.213Z,14.00
2023-04-26T01:44:39.930Z,14.50
2023-04-26T01:47:07.735Z,13.00
2023-04-26T01:49:36.637Z,15.00
2023-04-26T01:52:05.378Z,11.33
2023-04-26T01:54:34.079Z,6.00
2023-04-26T01:57:02.884Z,13.00
2023-04-26T01:59:30.934Z,11.00
2023-04-26T02:01:58.857Z,12.00
2023-04-26T02:04:27.884Z,13.00
2023-04-26T02:06:55.764Z,13.00
2023-04-26T02:09:23.547Z,13.00
2023-04-26T02:11:52.281Z,15.50
2023-04-26T02:14:20.599Z,14.00
2023-04-26T02:16:49.489Z,16.00
2023-04-26T02:19:18.259Z,15.00
2023-04-26T02:22:12.068Z,15.00
2023-04-26T02:24:40.137Z,12.00
2023-04-26T02:27:07.987Z,12.00
2023-04-26T02:29:44.169Z,13.00
2023-04-26T02:32:15.997Z,15.00
2023-04-26T02:34:45.888Z,14.00
2023-04-26T02:37:13.705Z,15.00
2023-04-26T02:39:41.657Z,14.00
2023-04-26T02:42:13.289Z,17.00
2023-04-26T02:44:41.058Z,13.00
2023-04-26T02:47:11.532Z,16.00
2023-04-26T02:49:40.328Z,15.00
2023-04-26T02:52:08.189Z,14.00
2023-04-26T02:54:36.844Z,12.67
2023-04-26T02:57:04.710Z,13.00
2023-04-26T02:59:32.768Z,14.00
2023-04-26T03:02:01.566Z,12.00
2023-04-26T03:04:30.469Z,14.00
2023-04-26T03:06:58.289Z,14.00
2023-04-26T03:09:26.126Z,15.00
2023-04-26T03:11:53.975Z,16.00
2023-04-26T03:14:23.149Z,13.67
2023-04-26T03:16:51.125Z,13.00
2023-04-26T03:19:18.996Z,16.50
2023-04-26T03:21:46.850Z,16.00
2023-04-26T03:24:14.636Z,13.00
2023-04-26T03:26:42.487Z,13.00
2023-04-26T03:29:12.629Z,15.00
2023-04-26T03:31:40.652Z,13.00
2023-04-26T03:34:08.990Z,14.00
2023-04-26T03:36:36.804Z,15.00
2023-04-26T03:39:06.372Z,14.00
2023-04-26T03:41:37.079Z,12.50
2023-04-26T03:44:05.290Z,13.00
2023-04-26T03:46:34.164Z,13.00
2023-04-26T03:49:02.929Z,13.33
2023-04-26T03:51:31.541Z,11.00
2023-04-26T03:54:00.841Z,11.00
2023-04-26T03:56:29.580Z,12.33
2023-04-26T03:58:58.222Z,11.00
2023-04-26T04:01:26.947Z,12.00
2023-04-26T04:03:54.866Z,11.50
2023-04-26T04:06:23.823Z,12.00
2023-04-26T04:08:52.046Z,14.00
2023-04-26T04:11:20.609Z,11.00
2023-04-26T04:13:48.438Z,12.50
2023-04-26T04:16:16.270Z,12.50
2023-04-26T04:18:45.040Z,11.33
2023-04-26T04:21:13.750Z,9.67
2023-04-26T04:23:43.739Z,12.00
2023-04-26T04:26:12.838Z,11.00
2023-04-26T04:28:45.737Z,9.20
2023-04-26T04:31:14.864Z,12.00
2023-04-26T04:33:42.681Z,8.00
2023-04-26T04:36:11.404Z,9.00
2023-04-26T04:38:39.260Z,9.00
2023-04-26T04:41:08.837Z,9.00
2023-04-26T04:43:38.747Z,7.40
2023-04-26T04:46:06.604Z,9.00
2023-04-26T04:48:34.376Z,8.00
2023-04-26T04:51:02.663Z,8.00
2023-04-26T04:53:32.209Z,6.00
2023-04-26T04:56:01.867Z,8.60
2023-04-26T04:58:29.591Z,7.00
2023-04-26T05:01:01.472Z,8.00
2023-04-26T05:03:29.496Z,8.00
2023-04-26T05:05:57.626Z,7.50
2023-04-26T05:08:25.448Z,7.00
2023-04-26T05:10:53.634Z,7.50
2023-04-26T05:13:21.407Z,7.50
2023-04-26T05:15:51.000Z,8.00
2023-04-26T05:18:18.714Z,6.00
2023-04-26T05:20:46.506Z,6.00
2023-04-26T05:23:14.291Z,6.00
2023-04-26T05:25:42.118Z,8.00
2023-04-26T05:28:12.909Z,7.00
2023-04-26T05:30:41.018Z,6.00
2023-04-26T05:33:08.846Z,6.50
2023-04-26T05:35:36.753Z,5.00
2023-04-26T05:38:04.669Z,4.00
2023-04-26T05:40:32.629Z,8.00
2023-04-26T05:43:00.441Z,5.50
2023-04-26T05:45:28.223Z,7.00
2023-04-26T05:47:56.891Z,5.00
2023-04-26T05:50:26.542Z,8.00
2023-04-26T05:52:56.167Z,6.40
2023-04-26T05:55:24.741Z,7.67
2023-04-26T05:57:52.646Z,8.00
2023-04-26T06:00:23.792Z,6.40
2023-04-26T06:02:53.441Z,5.20
2023-04-26T06:05:22.108Z,6.50
2023-04-26T06:07:50.332Z,6.00
2023-04-26T06:10:18.102Z,4.50
2023-04-26T06:12:46.662Z,8.00
2023-04-26T06:15:14.741Z,6.00
2023-04-26T06:17:44.344Z,6.60
2023-04-26T06:20:12.563Z,5.00
2023-04-26T06:22:40.286Z,5.00
2023-04-26T06:25:09.324Z,5.00
2023-04-26T06:27:39.216Z,5.00
2023-04-26T06:30:11.045Z,3.20
2023-04-26T06:32:42.514Z,7.00
2023-04-26T06:35:11.127Z,6.00
2023-04-26T06:37:40.912Z,6.00
2023-04-26T06:40:09.906Z,3.00
2023-04-26T06:42:37.696Z,5.00
2023-04-26T06:45:06.897Z,3.00
2023-04-26T06:47:34.767Z,5.00
2023-04-26T06:50:06.071Z,4.60
2023-04-26T06:52:35.746Z,5.00
2023-04-26T06:55:04.984Z,3.00
2023-04-26T06:57:34.569Z,3.80
2023-04-26T07:00:06.198Z,4.00
2023-04-26T07:02:34.057Z,3.00
2023-04-26T07:05:02.253Z,4.00
2023-04-26T07:07:30.256Z,2.00
2023-04-26T07:09:57.983Z,5.00
2023-04-26T07:12:27.669Z,5.00
2023-04-26T07:14:55.532Z,3.50
2023-04-26T07:17:25.069Z,4.00
2023-04-26T07:19:54.010Z,4.00
2023-04-26T07:22:23.717Z,3.50
2023-04-26T07:24:51.590Z,4.00
2023-04-26T07:27:19.329Z,4.00
2023-04-26T07:29:47.112Z,4.00
2023-04-26T07:32:16.708Z,5.00
2023-04-26T07:34:44.647Z,5.00
2023-04-26T07:37:12.515Z,3.00
2023-04-26T07:39:40.257Z,4.00
2023-04-26T07:42:08.079Z,5.00
2023-04-26T07:44:37.666Z,5.20
2023-04-26T07:47:05.682Z,4.00
2023-04-26T07:49:33.429Z,5.50
2023-04-26T07:52:02.584Z,5.00
2023-04-26T07:54:32.314Z,6.60
2023-04-26T07:57:00.139Z,6.00
2023-04-26T07:59:28.080Z,5.50
2023-04-26T08:01:55.872Z,5.00
2023-04-26T08:04:36.822Z,5.00
2023-04-26T08:07:04.750Z,4.00
2023-04-26T08:09:32.882Z,6.00
2023-04-26T08:12:00.649Z,5.00
2023-04-26T08:14:30.129Z,5.00
2023-04-26T08:16:57.935Z,5.50
2023-04-26T08:19:27.043Z,3.00
2023-04-26T08:21:54.733Z,4.00
2023-04-26T08:24:22.691Z,4.00
2023-04-26T08:26:50.599Z,4.50
2023-04-26T08:29:18.940Z,4.50
2023-04-26T08:31:48.449Z,5.20
2023-04-26T08:34:18.204Z,5.00
2023-04-26T08:36:48.757Z,5.00
2023-04-26T08:39:18.150Z,5.50
2023-04-26T08:41:55.636Z,5.00
2023-04-26T08:44:26.055Z,5.00
2023-04-26T08:47:26.476Z,3.00
2023-04-26T08:50:04.013Z,5.00
2023-04-26T08:52:33.046Z,6.00
2023-04-26T08:55:01.882Z,6.00
2023-04-26T08:57:33.814Z,5.00
2023-04-26T09:00:13.710Z,4.00
2023-04-26T09:02:49.914Z,3.00
2023-04-26T09:05:24.555Z,4.67
2023-04-26T09:08:02.361Z,5.43
2023-04-26T09:10:32.645Z,7.67
2023-04-26T09:13:00.576Z,5.50
2023-04-26T09:15:28.527Z,2.00
2023-04-26T09:17:56.295Z,5.00
2023-04-26T09:20:26.110Z,6.50
2023-04-26T09:23:16.096Z,4.50
2023-04-26T09:25:43.942Z,7.00
2023-04-26T09:28:29.613Z,5.00
2023-04-26T09:30:57.354Z,3.50
2023-04-26T09:33:25.107Z,5.00
2023-04-26T09:35:56.904Z,4.29
2023-04-26T09:38:24.595Z,5.00
2023-04-26T09:40:55.032Z,5.20
2023-04-26T09:43:23.812Z,6.00
2023-04-26T09:45:58.692Z,6.00
2023-04-26T09:48:35.158Z,4.00
2023-04-26T09:51:14.603Z,3.00
2023-04-26T09:53:47.448Z,4.00
2023-04-26T09:56:22.295Z,4.60
2023-04-26T09:59:05.888Z,5.50
2023-04-26T10:01:34.294Z,5.00
2023-04-26T10:04:04.625Z,5.00
2023-04-26T10:06:33.633Z,4.00
2023-04-26T10:09:04.577Z,3.50
2023-04-26T10:11:32.439Z,2.50
2023-04-26T10:14:00.518Z,4.00
2023-04-26T10:16:32.330Z,4.57
2023-04-26T10:19:04.481Z,4.14
2023-04-26T10:21:38.779Z,4.50
2023-04-26T10:24:07.325Z,5.00
2023-04-26T10:27:07.520Z,5.00
2023-04-26T10:29:56.803Z,6.00
2023-04-26T10:32:24.986Z,5.00
2023-04-26T10:35:13.820Z,5.00
2023-04-26T10:38:01.522Z,3.00
2023-04-26T10:40:39.542Z,4.50
2023-04-26T10:43:15.728Z,3.50
2023-04-26T10:45:46.155Z,6.00
2023-04-26T10:48:31.987Z,4.00
2023-04-26T10:51:02.736Z,6.00
2023-04-26T10:53:54.644Z,4.50
2023-04-26T10:56:24.361Z,4.20
2023-04-26T10:59:33.294Z,5.00
2023-04-26T11:02:02.402Z,6.00
2023-04-26T11:04:52.789Z,1.00
2023-04-26T11:07:38.669Z,6.00
2023-04-26T11:10:10.812Z,6.00
2023-04-26T11:12:43.199Z,4.00
2023-04-26T11:15:14.159Z,3.80
2023-04-26T11:17:42.027Z,5.00
2023-04-26T11:20:17.637Z,0.00
2023-04-26T11:22:45.737Z,5.00
2023-04-26T11:25:14.725Z,5.00
2023-04-26T11:27:46.096Z,3.00
2023-04-26T11:30:14.243Z,4.00
2023-04-26T11:32:42.095Z,6.00
2023-04-26T11:35:10.386Z,5.00
2023-04-26T11:37:41.804Z,6.57
2023-04-26T11:40:13.581Z,4.00
2023-04-26T11:42:42.539Z,3.00
2023-04-26T11:45:11.684Z,6.00
2023-04-26T11:47:40.535Z,6.00
2023-04-26T11:50:10.299Z,10.00
2023-04-26T11:52:42.483Z,4.29
2023-04-26T11:55:10.732Z,6.00
2023-04-26T11:57:42.080Z,3.57
2023-04-26T12:00:14.998Z,5.80
2023-04-26T12:02:50.446Z,4.00
2023-04-26T12:05:30.835Z,3.40
2023-04-26T12:08:01.089Z,5.00
2023-04-26T12:10:36.743Z,2.00
2023-04-26T12:13:05.288Z,1.25
2023-04-26T12:15:35.049Z,5.00
2023-04-26T12:18:12.443Z,4.00
2023-04-26T12:20:47.031Z,5.00
2023-04-26T12:23:18.528Z,5.00
2023-04-26T12:26:00.784Z,5.00
2023-04-26T12:28:29.440Z,13.33
2023-04-26T12:30:57.305Z,9.00
2023-04-26T12:33:25.643Z,4.00
2023-04-26T12:35:55.321Z,5.80
2023-04-26T12:38:23.038Z,4.00
2023-04-26T12:40:52.558Z,4.00
2023-04-26T12:43:24.197Z,4.00
2023-04-26T12:45:55.646Z,7.00
2023-04-26T12:48:23.537Z,2.00
2023-04-26T12:50:51.617Z,2.00
2023-04-26T12:53:19.563Z,10.00
2023-04-26T12:55:49.148Z,27.00
2023-04-26T12:58:19.220Z,5.60
2023-04-26T13:00:46.965Z,4.00
2023-04-26T13:03:15.205Z,4.00
2023-04-26T13:05:43.087Z,3.00
2023-04-26T13:08:10.976Z,3.00
2023-04-26T13:10:38.833Z,5.00
2023-04-26T13:13:07.138Z,3.00
2023-04-26T13:15:35.032Z,3.00
2023-04-26T13:18:02.825Z,6.00
2023-04-26T13:20:31.114Z,3.00
2023-04-26T13:22:58.998Z,3.00
2023-04-26T13:25:27.073Z,4.00
2023-04-26T13:27:55.726Z,6.00
2023-04-26T13:30:23.520Z,3.00
2023-04-26T13:32:51.645Z,3.00
2023-04-26T13:35:19.660Z,2.50
2023-04-26T13:37:48.093Z,4.00
2023-04-26T13:40:15.966Z,4.00
2023-04-26T13:42:43.857Z,5.00
2023-04-26T13:45:14.756Z,4.00
2023-04-26T13:47:42.590Z,4.00
2023-04-26T13:50:11.004Z,3.00
2023-04-26T13:52:38.895Z,7.00
2023-04-26T13:55:07.637Z,5.00
2023-04-26T13:57:35.425Z,8.00
2023-04-26T14:00:04.323Z,5.00
2023-04-26T14:02:35.873Z,6.14
2023-04-26T14:05:05.300Z,3.00
2023-04-26T14:07:33.178Z,3.00
2023-04-26T14:10:01.204Z,6.00
2023-04-26T14:12:30.051Z,6.00
2023-04-26T14:14:58.066Z,4.00
2023-04-26T14:17:28.209Z,6.00
2023-04-26T14:19:56.474Z,4.00
2023-04-26T14:22:24.825Z,4.00
2023-04-26T14:24:52.557Z,3.00
2023-04-26T14:27:20.559Z,5.00
2023-04-26T14:29:48.371Z,6.00
2023-04-26T14:32:16.219Z,5.50
2023-04-26T14:34:43.917Z,4.00
2023-04-26T14:37:11.875Z,5.00
2023-04-26T14:39:39.678Z,5.00
2023-04-26T14:42:07.439Z,3.00
2023-04-26T14:44:35.184Z,2.50
2023-04-26T14:47:02.925Z,3.00
2023-04-26T14:49:31.706Z,4.00
2023-04-26T14:51:59.442Z,3.00
2023-04-26T14:54:27.256Z,4.00
2023-04-26T14:56:59.614Z,4.00
2023-04-26T14:59:27.412Z,4.00
2023-04-26T15:01:55.255Z,4.00
2023-04-26T15:04:23.295Z,4.00
2023-04-26T15:06:52.053Z,4.25
2023-04-26T15:09:19.838Z,1.00
2023-04-26T15:11:47.748Z,3.50
2023-04-26T15:14:15.954Z,3.00
2023-04-26T15:16:43.821Z,3.00
2023-04-26T15:19:11.614Z,2.50
2023-04-26T15:21:39.522Z,6.00
2023-04-26T15:24:08.318Z,4.00
2023-04-26T15:26:36.093Z,5.00
2023-04-26T15:29:04.711Z,10.00
2023-04-26T15:31:32.499Z,4.00
2023-04-26T15:34:00.263Z,6.50
2023-04-26T15:36:29.834Z,25.00
2023-04-26T15:38:58.534Z,20.50
2023-04-26T15:41:27.295Z,6.00
2023-04-26T15:43:56.305Z,11.00
2023-04-26T15:46:24.960Z,7.00
2023-04-26T15:48:53.704Z,17.50
2023-04-26T15:51:23.483Z,8.00
2023-04-26T15:53:52.050Z,11.50
2023-04-26T15:56:20.209Z,7.00
2023-04-26T15:58:48.736Z,6.00
2023-04-26T16:01:18.953Z,8.00
2023-04-26T16:03:47.818Z,5.00
2023-04-26T16:06:17.747Z,7.20
2023-04-26T16:08:47.443Z,7.80
2023-04-26T16:11:16.769Z,4.00
2023-04-26T16:13:45.458Z,4.75
2023-04-26T16:16:13.355Z,5.50
2023-04-26T16:18:41.260Z,5.00
2023-04-26T16:21:13.241Z,5.00
2023-04-26T16:23:45.501Z,5.50
2023-04-26T16:26:13.705Z,5.00
2023-04-26T16:28:41.481Z,9.00
2023-04-26T16:31:10.430Z,9.67
2023-04-26T16:33:38.281Z,11.00
2023-04-26T16:36:07.921Z,10.33
2023-04-26T16:38:39.168Z,5.40
2023-04-26T16:41:08.757Z,5.20
2023-04-26T16:43:37.568Z,11.00
2023-04-26T16:46:09.415Z,32.33
2023-04-26T16:48:41.707Z,22.67
2023-04-26T16:51:11.504Z,24.00
2023-04-26T16:53:41.019Z,25.00
2023-04-26T16:56:11.420Z,23.67
2023-04-26T16:58:40.111Z,17.00
2023-04-26T17:01:08.174Z,10.00
2023-04-26T17:03:37.920Z,18.00
2023-04-26T17:06:07.934Z,8.00
2023-04-26T17:08:35.707Z,5.50
2023-04-26T17:11:03.637Z,4.00
2023-04-26T17:13:33.510Z,4.50
2023-04-26T17:16:03.702Z,5.40
2023-04-26T17:18:31.731Z,7.00
2023-04-26T17:21:01.965Z,8.00
2023-04-26T17:23:30.551Z,7.00
2023-04-26T17:25:58.399Z,6.00
2023-04-26T17:28:30.051Z,5.29
2023-04-26T17:30:58.247Z,6.00
2023-04-26T17:33:26.265Z,6.50
2023-04-26T17:35:56.401Z,6.20
2023-04-26T17:38:24.117Z,6.00
2023-04-26T17:40:55.174Z,6.00
2023-04-26T17:43:22.938Z,4.00
2023-04-26T17:45:50.950Z,6.00
2023-04-26T17:48:18.856Z,7.00
2023-04-26T17:50:46.911Z,6.50
2023-04-26T17:53:15.802Z,6.00
2023-04-26T17:55:47.176Z,7.00
2023-04-26T17:58:15.090Z,6.00
2023-04-26T18:00:43.387Z,5.00
2023-04-26T18:03:12.239Z,5.00
2023-04-26T18:05:40.404Z,6.00
2023-04-26T18:08:10.605Z,18.00
2023-04-26T18:10:38.467Z,8.00
2023-04-26T18:13:08.122Z,8.60
2023-04-26T18:15:35.936Z,9.00
2023-04-26T18:18:05.795Z,12.00
2023-04-26T18:20:39.529Z,12.00
2023-04-26T18:23:07.272Z,4.00
2023-04-26T18:25:35.091Z,11.00
2023-04-26T18:28:09.105Z,12.00
2023-04-26T18:30:37.772Z,11.00
2023-04-26T18:33:05.744Z,8.50
2023-04-26T18:35:33.585Z,11.00
2023-04-26T18:38:01.377Z,7.50
2023-04-26T18:40:30.026Z,11.00
2023-04-26T18:42:59.068Z,11.00
2023-04-26T18:45:26.863Z,13.50
2023-04-26T18:47:56.532Z,20.00
2023-04-26T18:50:26.311Z,24.00
2023-04-26T18:52:55.910Z,26.33
2023-04-26T18:55:28.272Z,28.33
2023-04-26T18:57:57.134Z,23.00
2023-04-26T19:00:27.016Z,22.33
2023-04-26T19:02:56.657Z,18.00
2023-04-26T19:05:27.162Z,16.00
2023-04-26T19:07:56.013Z,15.00
2023-04-26T19:10:24.233Z,15.00
2023-04-26T19:12:53.807Z,17.67
2023-04-26T19:15:23.386Z,16.67
2023-04-26T19:17:53.059Z,25.00
2023-04-26T19:20:22.699Z,18.67
2023-04-26T19:22:51.509Z,24.00
2023-04-26T19:25:24.511Z,23.50
2023-04-26T19:27:53.444Z,18.00
2023-04-26T19:30:23.162Z,35.00
2023-04-26T19:32:51.980Z,12.00
2023-04-26T19:35:21.016Z,17.00
2023-04-26T19:37:50.890Z,54.67
2023-04-26T19:40:19.807Z,23.00
2023-04-26T19:42:49.411Z,20.67
2023-04-26T19:45:20.670Z,13.00
2023-04-26T19:47:49.562Z,10.33
2023-04-26T19:50:18.032Z,15.50
2023-04-26T19:52:46.381Z,14.00
2023-04-26T19:55:15.132Z,12.50
2023-04-26T19:57:44.971Z,10.00
2023-04-26T20:00:15.637Z,11.00
2023-04-26T20:02:43.606Z,11.00
2023-04-26T20:05:12.810Z,10.33
2023-04-26T20:07:40.865Z,9.00
2023-04-26T20:10:10.473Z,10.00
2023-04-26T20:12:38.338Z,9.50
2023-04-26T20:15:08.628Z,10.00
2023-04-26T20:17:37.788Z,20.00
2023-04-26T20:20:08.741Z,15.00
2023-04-26T20:22:37.202Z,13.50
2023-04-26T20:25:07.018Z,20.00
2023-04-26T20:27:35.846Z,16.00
2023-04-26T20:30:07.367Z,26.00
2023-04-26T20:32:35.654Z,15.00
2023-04-26T20:35:05.354Z,9.67
2023-04-26T20:37:34.134Z,12.50
2023-04-26T20:40:03.896Z,24.50
2023-04-26T20:42:31.810Z,12.00
2023-04-26T20:45:02.188Z,18.00
2023-04-26T20:47:31.637Z,13.00
2023-04-26T20:50:00.302Z,11.00
2023-04-26T20:52:28.941Z,11.67
2023-04-26T20:54:57.527Z,8.50
2023-04-26T20:57:26.193Z,12.50
2023-04-26T20:59:54.127Z,12.00
2023-04-26T21:02:22.981Z,12.00
2023-04-26T21:04:51.865Z,8.00
2023-04-26T21:07:20.643Z,10.00
2023-04-26T21:09:49.483Z,11.00
2023-04-26T21:12:17.299Z,10.50
2023-04-26T21:14:46.134Z,11.00
2023-04-26T21:17:15.813Z,11.00
2023-04-26T21:19:44.892Z,12.00
2023-04-26T21:22:12.653Z,12.00
2023-04-26T21:24:41.924Z,18.50
2023-04-26T21:27:10.894Z,11.67
2023-04-26T21:29:39.682Z,13.50
2023-04-26T21:32:07.505Z,15.00
2023-04-26T21:34:37.495Z,12.00
2023-04-26T21:37:05.339Z,12.00
2023-04-26T21:39:33.928Z,11.00
2023-04-26T21:42:03.722Z,10.00
2023-04-26T21:44:32.406Z,11.00
2023-04-26T21:47:00.376Z,9.00
2023-04-26T21:49:29.086Z,8.00
2023-04-26T21:51:56.961Z,9.00
2023-04-26T21:54:26.639Z,8.00
2023-04-26T21:56:54.436Z,8.00
2023-04-26T21:59:22.302Z,9.00
2023-04-26T22:01:50.108Z,9.00
2023-04-26T22:04:19.889Z,11.20
2023-04-26T22:06:47.905Z,9.00
2023-04-26T22:09:16.846Z,6.00
2023-04-26T22:11:46.867Z,10.00
2023-04-26T22:14:14.779Z,9.50
2023-04-26T22:16:44.670Z,8.60
2023-04-26T22:19:12.676Z,10.00
2023-04-26T22:21:41.678Z,9.67
2023-04-26T22:24:10.286Z,10.67
2023-04-26T22:26:38.106Z,13.00
2023-04-26T22:29:08.161Z,10.40
2023-04-26T22:31:37.015Z,11.00
2023-04-26T22:34:05.758Z,10.33
2023-04-26T22:36:33.600Z,2.00
2023-04-26T22:39:01.744Z,8.00
2023-04-26T22:41:31.625Z,9.00
2023-04-26T22:43:59.505Z,7.00
2023-04-26T22:46:27.459Z,7.00
2023-04-26T22:48:57.294Z,9.80
2023-04-26T22:51:25.238Z,11.00
2023-04-26T22:53:53.081Z,10.00
2023-04-26T22:56:21.030Z,9.50
2023-04-26T22:58:49.710Z,11.33
2023-04-26T23:01:18.397Z,10.33
2023-04-26T23:03:47.129Z,11.00
2023-04-26T23:06:15.012Z,12.00
2023-04-26T23:08:43.691Z,10.00
2023-04-26T23:11:12.331Z,10.00
2023-04-26T23:13:40.128Z,13.50
2023-04-26T23:16:08.780Z,14.00
2023-04-26T23:18:37.405Z,12.00
2023-04-26T23:21:06.975Z,21.33
2023-04-26T23:23:36.466Z,11.00
2023-04-26T23:26:08.441Z,10.67
2023-04-26T23:28:36.628Z,10.00
2023-04-26T23:31:05.405Z,5.00
2023-04-26T23:33:34.078Z,11.00
2023-04-26T23:36:03.412Z,10.00
2023-04-26T23:38:32.136Z,10.67
2023-04-26T23:41:00.804Z,12.00
2023-04-26T23:43:28.666Z,10.00
2023-04-26T23:45:57.312Z,9.67
2023-04-26T23:48:26.160Z,9.67
2023-04-26T23:50:56.113Z,11.60
2023-04-26T23:53:23.946Z,11.00
2023-04-26T23:55:52.560Z,10.00
2023-04-26T23:58:22.572Z,8.60
